CYYW

Armstrong Airport

Armstrong, Ontario, Canada
METAR CYYW 171248Z AUTO 32009G16KT 9SM -SN OVC019 M11/M14 A3011 RMK SLP227
Observed Flight Rules
Dec-17 @ 12:48 UTC (3 minutes ago) Marginal Visual Flight Rules
Wind Visibility Clouds Conditions
320° at 9 knots
 Gusting to 16 knots
9 miles
  • Overcast at 1,900' AGL
  • Light Snow
Temperatures Readings
Current -11°C / 12°F
Dewpoint -14°C / 7°F
Humidity 79%
Altimeter 30.11" Hg
Pressure 1022.7 hPa
Elevation 351
METAR CYYW 171248Z AUTO 32009G16KT 9SM -SN OVC019 M11/M14 A3011 RMK SLP227
Observed Flight Rules
Dec-17 @ 12:48 UTC
(3 minutes ago)
MVFR
Wind Visibility
320° at 9 knots
 Gusting to 16 knots
9 miles
Clouds
  • Overcast at 1,900' AGL
Conditions
  • Light Snow
Temperature Dewpoint
-11°C / 12°F -14°C / 7°F
Humidity Altimeter Pressure
79% 30.11" Hg 1022.7 hPa